Latest Weather Observations for Strahan

IDT60801

Issued at 6:51 pm EST Tuesday 20 August 2019 (issued every 10 minutes, with the page automatically refreshed every 10 minutes)

About weather observations | Map of weather stations | Latest weather observations for TAS | Other Formats
Station Details ID: 097072 Name: STRAHAN AERODROME Lat: -42.16 Lon: 145.29 Height: 21.0 m
Data from the previous 72 hours. | See also: Recent months at Strahan
Date/Time
EST
Temp
°C
App
Temp
°C
Dew
Point
°C
Rel
Hum
%
Delta-T
°C
Wind Press
QNH
hPa
Press
MSL
hPa
Rain since
9am
mm
Dir  Spd
km/h
Gust
km/h
Spd
kts
Gust
kts
20/06:30pm 11.2 3.5 8.6 84 1.3 W 39 57 21 31 1005.7 1005.8 3.0
20/06:00pm 11.0 2.7 9.3 89 0.9 W 43 63 23 34 1005.5 1005.6 3.0
20/05:35pm 11.8 3.0 9.5 86 1.2 W 46 65 25 35 1005.5 1005.6 3.0
20/05:30pm 11.8 2.2 9.5 86 1.2 W 50 65 27 35 1005.7 1005.8 3.0
20/05:25pm 11.7 2.1 9.3 85 1.2 W 50 69 27 37 1005.6 1005.7 3.0
20/05:00pm 11.5 2.8 9.9 90 0.8 W 46 67 25 36 1005.5 1005.6 3.0
20/04:41pm 11.4 2.8 10.3 93 0.6 W 46 67 25 36 1005.8 1005.9 3.0
20/04:39pm 11.4 2.4 10.3 93 0.6 W 48 67 26 36 1005.8 1005.9 3.0
20/04:30pm 11.4 2.4 10.3 93 0.6 W 48 65 26 35 1005.8 1005.9 3.0
20/04:00pm 11.4 2.5 10.6 95 0.4 WNW 48 69 26 37 1005.9 1006.0 2.6
20/03:30pm 11.3 1.9 10.2 93 0.6 WNW 50 76 27 41 1005.6 1005.7 2.4
20/03:00pm 11.3 2.7 10.4 94 0.5 WNW 46 72 25 39 1005.9 1006.0 2.4
20/02:51pm 11.2 2.6 10.4 95 0.4 WNW 46 67 25 36 1006.0 1006.1 2.4
20/02:44pm 11.3 3.1 10.5 95 0.4 WNW 44 61 24 33 1006.1 1006.2 2.4
20/02:30pm 11.2 3.0 10.3 94 0.5 WNW 44 69 24 37 1006.3 1006.4 2.2
20/02:04pm 11.2 2.1 9.8 91 0.7 WNW 48 69 26 37 1006.5 1006.6 2.0
20/02:00pm 11.3 2.5 9.7 90 0.8 WNW 46 65 25 35 1006.5 1006.6 2.0
20/01:45pm 11.2 1.6 9.6 90 0.8 WNW 50 69 27 37 1006.8 1006.9 1.8
20/01:36pm 11.2 1.6 9.5 89 0.9 WNW 50 69 27 37 1007.1 1007.2 1.8
20/01:30pm 11.1 2.7 9.5 90 0.8 WNW 44 65 24 35 1007.4 1007.5 1.8
20/01:19pm 11.0 1.8 9.6 91 0.7 WNW 48 69 26 37 1007.6 1007.7 1.8
20/01:03pm 10.9 2.7 9.8 93 0.6 WNW 43 61 23 33 1008.2 1008.3 1.8
20/01:00pm 11.0 2.8 9.6 91 0.7 WNW 43 56 23 30 1008.4 1008.5 1.8
20/12:59pm 11.0 2.8 9.6 91 0.7 WNW 43 57 23 31 1008.3 1008.4 1.8
20/12:30pm 11.0 1.8 9.6 91 0.7 WNW 48 69 26 37 1008.7 1008.8 1.6
20/12:25pm 10.8 2.3 9.4 91 0.7 WNW 44 63 24 34 1008.7 1008.8 1.6
20/12:07pm 10.8 2.6 9.7 93 0.6 WNW 43 57 23 31 1009.4 1009.5 1.0
20/12:00pm 10.8 3.3 9.6 92 0.6 WNW 39 57 21 31 1009.4 1009.5 0.8
20/11:59am 10.8 3.3 9.6 92 0.6 WNW 39 57 21 31 1009.4 1009.5 0.8
20/11:53am 10.8 2.9 9.2 90 0.8 WNW 41 57 22 31 1009.5 1009.6 0.6
20/11:44am 10.8 1.5 9.2 90 0.8 WNW 48 67 26 36 1009.6 1009.7 0.6
20/11:43am 10.8 1.1 9.2 90 0.8 WNW 50 67 27 36 1009.6 1009.7 0.6
20/11:30am 10.7 2.3 8.8 88 0.9 WNW 43 61 23 33 1009.9 1010.0 0.6
20/11:16am 10.9 3.4 9.5 91 0.7 WNW 39 57 21 31 1010.2 1010.3 0.6
20/11:02am 10.8 3.6 9.2 90 0.8 WNW 37 57 20 31 1010.4 1010.5 0.6
20/11:00am 10.9 3.8 9.7 92 0.6 WNW 37 57 20 31 1010.4 1010.5 0.6
20/10:30am 11.0 4.0 9.9 93 0.6 WNW 37 63 20 34 1010.4 1010.5 0.4
20/10:19am 11.1 4.1 9.9 92 0.6 WNW 37 65 20 35 1010.4 1010.5 0.2
20/10:07am 11.2 4.6 10.1 93 0.6 WNW 35 54 19 29 1010.3 1010.4 0.2
20/10:00am 11.2 3.1 10.1 93 0.6 WNW 43 63 23 34 1010.2 1010.3 0.2
20/09:52am 11.0 2.9 9.9 93 0.6 WNW 43 65 23 35 1010.3 1010.4 0.2
20/09:48am 11.3 3.6 10.2 93 0.6 WNW 41 61 22 33 1010.2 1010.3 0.2
20/09:31am 11.2 3.6 10.4 95 0.4 WNW 41 57 22 31 1010.2 1010.3 0.2
20/09:30am 11.2 3.6 10.4 95 0.4 WNW 41 57 22 31 1010.2 1010.3 0.2
20/09:00am 11.3 3.4 10.7 96 0.3 WNW 43 67 23 36 1010.4 1010.5 11.2
20/08:39am 11.4 4.3 10.8 96 0.3 WNW 39 57 21 31 1010.4 1010.5 11.2
20/08:30am 11.4 3.4 10.6 95 0.4 WNW 43 56 23 30 1010.5 1010.6 11.0
20/08:20am 11.3 3.7 10.4 94 0.5 WNW 41 63 22 34 1010.4 1010.5 11.0
20/08:13am 11.4 4.6 10.5 94 0.5 WNW 37 59 20 32 1010.5 1010.6 10.6
20/08:00am 11.2 3.9 10.3 94 0.5 WNW 39 56 21 30 1010.6 1010.7 10.6
20/07:31am 11.1 4.6 10.3 95 0.4 WNW 35 54 19 29 1010.5 1010.6 10.6
20/07:30am 11.1 4.2 10.3 95 0.4 WNW 37 54 20 29 1010.5 1010.6 10.6
20/07:19am 11.0 4.5 10.4 96 0.3 WNW 35 48 19 26 1010.7 1010.8 10.6
20/07:00am 10.9 4.4 10.3 96 0.3 WNW 35 54 19 29 1010.8 1010.9 10.6
20/06:49am 10.9 5.0 10.3 96 0.3 WNW 32 56 17 30 1010.7 1010.8 10.6
20/06:41am 10.9 5.0 10.3 96 0.3 WNW 32 46 17 25 1010.7 1010.8 10.6
20/06:36am 10.8 4.8 10.2 96 0.3 WNW 32 48 17 26 1010.7 1010.8 10.6
20/06:30am 10.8 4.6 10.2 96 0.3 WNW 33 50 18 27 1010.6 1010.7 10.6
20/06:03am 10.7 3.7 10.1 96 0.3 WNW 37 56 20 30 1010.8 1010.9 10.4
20/06:00am 10.7 3.3 9.9 95 0.4 WNW 39 56 21 30 1010.8 1010.9 10.4
20/05:54am 10.6 4.3 9.8 95 0.4 WNW 33 52 18 28 1010.8 1010.9 10.4
20/05:43am 10.6 4.3 9.8 95 0.4 WNW 33 50 18 27 1010.8 1010.9 10.2
20/05:41am 10.7 4.6 9.9 95 0.4 WNW 32 46 17 25 1010.9 1011.0 10.2
20/05:30am 10.5 3.9 9.9 96 0.3 WNW 35 52 19 28 1010.9 1011.0 10.2
20/05:05am 10.7 4.6 9.8 94 0.5 WNW 32 50 17 27 1011.2 1011.3 10.2
20/05:03am 10.7 5.0 9.8 94 0.5 WNW 30 50 16 27 1011.1 1011.2 10.2
20/05:00am 10.6 5.3 9.7 94 0.5 WNW 28 41 15 22 1011.0 1011.1 10.2
20/04:59am 10.6 4.9 9.7 94 0.5 WNW 30 41 16 22 1011.0 1011.1 10.2
20/04:33am 10.6 4.3 9.8 95 0.4 WNW 33 52 18 28 1011.3 1011.4 10.2
20/04:30am 10.5 3.8 9.7 95 0.4 WNW 35 52 19 28 1011.3 1011.4 10.2
20/04:05am 10.6 4.2 9.5 93 0.6 WNW 33 56 18 30 1011.5 1011.6 9.8
20/04:00am 10.7 5.3 9.5 92 0.6 WNW 28 54 15 29 1011.5 1011.6 9.8
20/03:57am 10.7 5.3 9.6 93 0.6 WNW 28 41 15 22 1011.6 1011.7 9.8
20/03:33am 10.6 3.2 9.7 94 0.5 W 39 52 21 28 1011.8 1011.9 9.6
20/03:30am 10.5 3.4 9.6 94 0.5 W 37 52 20 28 1011.8 1011.9 9.6
20/03:25am 10.5 3.8 9.7 95 0.4 WNW 35 52 19 28 1011.8 1011.9 9.6
20/03:00am 10.3 3.5 9.2 93 0.5 WNW 35 50 19 27 1012.0 1012.1 9.4
20/02:36am 10.3 3.4 8.9 91 0.7 WNW 35 54 19 29 1012.3 1012.4 9.0
20/02:31am 10.4 3.2 9.0 91 0.7 WNW 37 54 20 29 1012.3 1012.4 9.0
20/02:30am 10.4 3.5 9.0 91 0.7 WNW 35 54 19 29 1012.3 1012.4 8.8
20/02:15am 10.4 4.1 9.0 91 0.7 WNW 32 54 17 29 1012.4 1012.5 8.8
20/02:01am 10.3 3.4 8.9 91 0.7 WNW 35 52 19 28 1012.8 1012.9 8.8
20/02:00am 10.3 3.4 8.9 91 0.7 WNW 35 52 19 28 1012.8 1012.9 8.8
20/01:57am 10.3 3.8 8.9 91 0.7 WNW 33 52 18 28 1012.8 1012.9 8.8
20/01:52am 10.4 4.1 8.8 90 0.8 WNW 32 44 17 24 1012.8 1012.9 8.8
20/01:38am 10.1 2.8 8.7 91 0.7 WNW 37 61 20 33 1012.9 1013.0 8.8
20/01:34am 10.2 3.2 8.5 89 0.8 WNW 35 61 19 33 1012.9 1013.0 8.8
20/01:30am 10.3 3.3 8.4 88 0.9 WNW 35 50 19 27 1012.9 1013.0 8.8
20/01:16am 10.2 4.2 8.6 90 0.8 WNW 30 48 16 26 1013.0 1013.1 8.8
20/01:11am 10.1 3.7 8.5 90 0.8 WNW 32 46 17 25 1013.0 1013.1 8.8
20/01:00am 9.9 2.5 8.2 89 0.8 WNW 37 56 20 30 1013.1 1013.2 8.8
20/12:53am 10.1 3.1 8.4 89 0.8 WNW 35 56 19 30 1013.1 1013.2 8.8
20/12:50am 10.3 3.4 8.7 90 0.8 WNW 35 54 19 29 1013.1 1013.2 8.8
20/12:45am 10.1 3.1 8.5 90 0.8 WNW 35 54 19 29 1013.2 1013.3 8.8
20/12:38am 10.0 3.1 8.8 92 0.6 WNW 35 57 19 31 1013.2 1013.3 8.8
20/12:30am 9.9 2.2 8.7 92 0.6 WNW 39 63 21 34 1013.3 1013.4 8.8
20/12:29am 9.9 2.5 8.5 91 0.7 WNW 37 63 20 34 1013.2 1013.3 8.8
20/12:25am 9.7 3.0 8.0 89 0.8 WNW 33 63 18 34 1013.2 1013.3 8.6
20/12:22am 10.2 4.2 8.5 89 0.8 WNW 30 61 16 33 1013.2 1013.3 8.6
20/12:11am 10.2 4.6 8.8 91 0.7 WNW 28 43 15 23 1013.3 1013.4 8.6
20/12:00am 10.0 3.4 8.6 91 0.7 WNW 33 46 18 25 1013.3 1013.4 8.6
 
Date/Time
EST
Temp
°C
App
Temp
°C
Dew
Point
°C
Rel
Hum
%
Delta-T
°C
Wind Press
QNH
hPa
Press
MSL
hPa
Rain since
9am
mm
Dir  Spd
km/h
Gust
km/h
Spd
kts
Gust
kts
19/11:34pm 10.0 3.6 8.4 90 0.8 WNW 32 56 17 30 1013.3 1013.4 8.6
19/11:33pm 9.9 3.5 8.5 91 0.7 WNW 32 46 17 25 1013.3 1013.4 8.6
19/11:30pm 9.8 3.4 8.4 91 0.7 WNW 32 46 17 25 1013.3 1013.4 8.6
19/11:14pm 9.6 2.5 8.2 91 0.7 W 35 57 19 31 1013.3 1013.4 8.6
19/11:12pm 9.9 3.2 8.2 89 0.8 W 33 57 18 31 1013.3 1013.4 8.2
19/11:11pm 10.0 3.5 8.3 89 0.8 W 32 43 17 23 1013.2 1013.3 8.0
19/11:00pm 9.8 3.4 8.7 93 0.5 W 32 48 17 26 1013.3 1013.4 8.0
19/10:30pm 9.7 2.0 8.5 92 0.6 W 39 57 21 31 1013.3 1013.4 7.8
19/10:24pm 9.8 2.3 8.1 89 0.8 W 37 57 20 31 1013.3 1013.4 7.4
19/10:21pm 10.2 3.1 8.1 87 1.0 W 35 57 19 31 1013.3 1013.4 7.4
19/10:06pm 10.1 2.7 8.4 89 0.8 W 37 52 20 28 1013.2 1013.3 7.4
19/10:00pm 9.8 3.1 8.2 90 0.8 W 33 52 18 28 1013.2 1013.3 7.4
19/09:47pm 9.9 2.1 8.3 90 0.8 W 39 56 21 30 1013.3 1013.4 7.4
19/09:37pm 10.0 2.5 8.1 88 0.9 W 37 56 20 30 1013.1 1013.2 7.4
19/09:30pm 10.1 1.9 8.2 88 0.9 W 41 56 22 30 1013.0 1013.1 7.4
19/09:15pm 10.1 3.1 8.4 89 0.8 W 35 54 19 29 1012.8 1012.9 7.4
19/09:00pm 10.5 1.8 7.6 82 1.4 W 43 57 23 31 1012.6 1012.7 7.4
19/08:42pm 10.1 1.8 7.9 86 1.1 W 41 59 22 32 1012.5 1012.6 7.4
19/08:30pm 10.2 2.3 7.8 85 1.2 W 39 52 21 28 1012.4 1012.5 7.4
19/08:09pm 9.9 2.3 7.7 86 1.1 W 37 50 20 27 1012.2 1012.3 7.4
19/08:00pm 9.8 2.7 8.2 90 0.8 W 35 59 19 32 1012.2 1012.3 7.4
19/07:54pm 9.7 1.4 7.8 88 0.9 W 41 59 22 32 1012.2 1012.3 7.4
19/07:30pm 9.9 2.3 7.5 85 1.1 W 37 63 20 34 1012.0 1012.1 7.4
19/07:00pm 9.6 2.8 7.7 88 0.9 W 33 54 18 29 1011.6 1011.7 7.0
19/06:30pm 9.7 1.4 7.6 87 1.0 W 41 61 22 33 1011.3 1011.4 6.4
19/06:00pm 9.6 0.5 6.7 82 1.4 WSW 44 65 24 35 1010.9 1011.0 6.2
19/05:48pm 9.9 2.0 7.8 87 1.0 W 39 57 21 31 1010.7 1010.8 6.2
19/05:41pm 9.8 1.1 7.7 87 1.0 W 43 56 23 30 1010.5 1010.6 6.2
19/05:30pm 9.6 1.7 8.0 90 0.8 W 39 63 21 34 1010.5 1010.6 6.2
19/05:23pm 9.7 1.5 8.0 89 0.8 W 41 63 22 34 1010.4 1010.5 6.2
19/05:19pm 9.8 1.9 7.7 87 1.0 W 39 57 21 31 1010.3 1010.4 5.8
19/05:00pm 9.8 1.6 8.1 89 0.8 WSW 41 56 22 30 1010.1 1010.2 5.8
19/04:39pm 9.5 2.4 7.9 90 0.8 W 35 56 19 30 1010.0 1010.1 5.6
19/04:36pm 9.4 2.3 8.0 91 0.7 W 35 56 19 30 1009.8 1009.9 5.6
19/04:30pm 9.3 1.8 8.1 92 0.6 WSW 37 54 20 29 1009.9 1010.0 5.6
19/04:17pm 9.1 1.5 7.5 90 0.8 WSW 37 59 20 32 1009.8 1009.9 5.4
19/04:10pm 8.8 0.8 7.4 91 0.7 WSW 39 56 21 30 1009.7 1009.8 5.4
19/04:00pm 9.2 2.1 8.0 92 0.6 WSW 35 56 19 30 1009.7 1009.8 4.6
19/03:39pm 9.0 2.8 7.9 93 0.5 W 30 61 16 33 1009.6 1009.7 4.0
19/03:35pm 8.9 3.8 7.8 93 0.5 W 24 43 13 23 1009.6 1009.7 3.8
19/03:30pm 8.7 4.0 7.6 93 0.5 W 22 37 12 20 1009.5 1009.6 3.4
19/03:27pm 8.6 3.5 7.5 93 0.5 WNW 24 37 13 20 1009.5 1009.6 3.2
19/03:05pm 8.2 3.6 6.7 90 0.7 W 20 32 11 17 1009.7 1009.8 2.6
19/03:00pm 8.2 3.6 6.7 90 0.7 W 20 30 11 16 1009.7 1009.8 2.4
19/02:56pm 8.1 3.5 6.4 89 0.8 W 20 28 11 15 1009.8 1009.9 2.4
19/02:30pm 8.0 1.7 5.6 85 1.1 WSW 28 44 15 24 1009.9 1010.0 1.8
19/02:00pm 8.0 0.8 5.1 82 1.3 W 32 44 17 24 1010.0 1010.1 1.6
19/01:31pm 8.0 1.2 2.9 70 2.2 WSW 28 46 15 25 1010.1 1010.2 1.4
19/01:30pm 8.1 1.4 3.4 72 2.0 WSW 28 39 15 21 1010.1 1010.2 1.4
19/01:00pm 8.1 0.7 3.8 74 1.9 WSW 32 44 17 24 1010.3 1010.4 1.4
19/12:31pm 8.7 1.3 4.1 73 2.0 WSW 32 52 17 28 1010.2 1010.3 1.2
19/12:30pm 8.7 1.1 2.7 66 2.5 WSW 32 43 17 23 1010.1 1010.2 1.2
19/12:00pm 8.7 0.9 3.1 68 2.4 WSW 33 50 18 27 1010.1 1010.2 1.2
19/11:32am 8.0 2.5 6.0 87 0.9 WSW 24 33 13 18 1010.1 1010.2 1.2
19/11:30am 7.7 2.2 5.8 88 0.9 WSW 24 33 13 18 1010.1 1010.2 1.2
19/11:17am 5.7 -3.2 2.9 82 1.2 WSW 39 69 21 37 1010.1 1010.2 1.2
19/11:10am 8.3 1.2 3.8 73 1.9 WSW 30 59 16 32 1010.0 1010.1 0.6
19/11:00am 8.7 1.7 4.3 74 1.9 WSW 30 44 16 24 1009.8 1009.9 0.6
19/10:30am 6.2 0.3 3.9 85 1.0 SSW 24 39 13 21 1009.6 1009.7 0.6
19/10:28am 6.1 -0.1 4.1 87 0.9 SSW 26 41 14 22 1009.6 1009.7 0.6
19/10:12am 5.8 -3.8 3.3 84 1.0 SW 43 65 23 35 1009.5 1009.6 0.6
19/10:07am 7.6 -0.6 2.5 70 2.1 SW 35 57 19 31 1009.2 1009.3 0.2
19/10:00am 7.7 0.5 3.2 73 1.9 WSW 30 46 16 25 1009.0 1009.1 0.2
19/09:30am 5.6 -2.2 3.1 84 1.0 WSW 33 54 18 29 1008.6 1008.7 0.2
19/09:07am 6.5 -0.4 2.8 77 1.5 WSW 28 57 15 31 1008.4 1008.5 0.0
19/09:00am 6.9 0.5 3.3 78 1.5 WSW 26 41 14 22 1008.2 1008.3 35.8
19/08:30am 4.6 -0.8 2.5 86 0.8 WSW 20 35 11 19 1008.0 1008.1 35.6
19/08:05am 5.5 -2.2 3.3 86 0.9 SW 33 70 18 38 1008.0 1008.1 35.4
19/08:02am 5.7 -0.3 3.2 84 1.0 SW 24 57 13 31 1007.9 1008.0 35.4
19/08:00am 6.0 1.0 3.8 86 0.9 SSW 19 28 10 15 1007.7 1007.8 35.2
19/07:30am 6.2 -1.6 2.8 79 1.4 SW 33 56 18 30 1006.9 1007.0 35.2
19/07:29am 6.2 -1.5 2.5 77 1.5 SW 32 54 17 29 1006.8 1006.9 35.2
19/07:00am 4.5 -0.3 2.5 87 0.8 SSW 17 32 9 17 1006.4 1006.5 35.2
19/06:32am 4.7 -2.3 2.1 83 1.0 SW 28 39 15 21 1006.0 1006.1 35.2
19/06:30am 4.8 -2.9 2.2 83 1.0 SW 32 48 17 26 1006.0 1006.1 35.2
19/06:14am 5.0 -3.2 2.9 86 0.9 SW 35 65 19 35 1005.8 1005.9 35.0
19/06:13am 5.2 -3.0 2.9 85 0.9 SW 35 65 19 35 1005.8 1005.9 35.0
19/06:11am 6.1 -1.0 3.8 85 1.0 WSW 30 65 16 35 1005.5 1005.6 34.6
19/06:00am 5.2 0.5 3.1 86 0.9 WSW 17 30 9 16 1005.2 1005.3 34.4
19/05:43am 4.5 -0.3 2.5 87 0.8 SW 17 20 9 11 1005.1 1005.2 34.4
19/05:30am 4.5 -4.6 1.7 82 1.1 WSW 39 59 21 32 1005.0 1005.1 34.4
19/05:28am 4.5 -4.6 1.7 82 1.1 WSW 39 59 21 32 1005.2 1005.3 34.2
19/05:23am 5.5 -1.8 2.5 81 1.2 WSW 30 56 16 30 1005.0 1005.1 33.8
19/05:00am 5.9 -0.2 2.7 80 1.3 WSW 24 33 13 18 1004.6 1004.7 33.6
19/04:30am 5.5 -4.4 3.0 84 1.0 SW 44 70 24 38 1004.7 1004.8 33.6
19/04:25am 5.9 -3.8 2.7 80 1.3 WSW 43 70 23 38 1004.6 1004.7 33.6
19/04:24am 6.1 -3.3 2.6 78 1.4 WSW 41 70 22 38 1004.5 1004.6 33.6
19/04:22am 6.7 -1.5 2.6 75 1.7 WSW 35 65 19 35 1004.4 1004.5 33.6
19/04:00am 6.4 -1.4 2.7 77 1.5 WSW 33 50 18 27 1004.1 1004.2 33.6
19/03:51am 6.0 -1.3 2.5 78 1.4 SW 30 50 16 27 1004.0 1004.1 33.6
19/03:30am 5.8 -1.1 2.8 81 1.2 SW 28 37 15 20 1003.8 1003.9 33.2
19/03:00am 6.8 -0.1 2.7 75 1.7 WSW 28 43 15 23 1003.6 1003.7 32.6
19/02:30am 6.5 0.1 3.1 79 1.4 WSW 26 35 14 19 1003.7 1003.8 32.6
19/02:00am 6.0 -1.5 3.2 82 1.2 SW 32 44 17 24 1003.7 1003.8 32.6
19/01:48am 6.4 1.4 4.4 87 0.9 SW 20 46 11 25 1003.6 1003.7 32.6
19/01:30am 5.7 1.8 3.5 86 0.9 SW 13 20 7 11 1003.5 1003.6 32.6
19/01:00am 6.2 2.0 4.0 86 0.9 SSW 15 24 8 13 1003.3 1003.4 32.6
19/12:30am 5.8 0.6 3.6 86 0.9 SSW 20 32 11 17 1003.2 1003.3 32.4
19/12:00am 6.9 2.1 4.4 84 1.1 SSW 19 30 10 16 1003.1 1003.2 32.4
 
Date/Time
EST
Temp
°C
App
Temp
°C
Dew
Point
°C
Rel
Hum
%
Delta-T
°C
Wind Press
QNH
hPa
Press
MSL
hPa
Rain since
9am
mm
Dir  Spd
km/h
Gust
km/h
Spd
kts
Gust
kts
18/11:30pm 7.0 1.1 4.0 81 1.3 SW 24 33 13 18 1002.6 1002.7 32.4
18/11:00pm 7.1 1.7 4.4 83 1.2 SW 22 30 12 16 1002.2 1002.3 32.4
18/10:30pm 6.6 2.5 4.4 86 0.9 SW 15 20 8 11 1002.1 1002.1 32.4
18/10:00pm 6.6 2.6 4.9 89 0.7 S 15 19 8 10 1002.0 1002.0 32.4
18/09:30pm 6.5 3.2 4.7 88 0.8 S 11 15 6 8 1001.9 1001.9 32.4
18/09:00pm 6.4 4.5 4.9 90 0.7 N 4 7 2 4 1002.2 1002.3 32.4
18/08:30pm 6.3 3.6 5.4 94 0.4 NE 9 13 5 7 1002.4 1002.5 32.4
18/08:00pm 6.7 4.4 5.8 94 0.4 NNE 7 11 4 6 1002.1 1002.1 31.4
18/07:30pm 6.6 4.2 5.2 91 0.6 NE 7 9 4 5 1001.8 1001.8 30.6
18/07:00pm 7.0 2.6 4.8 86 1.0 SW 17 26 9 14 1001.2 1001.2 30.2
18/06:30pm 7.3 3.8 5.6 89 0.8 SSW 13 20 7 11 1000.6 1000.6 28.6
18/06:00pm 7.7 4.0 6.3 91 0.6 SW 15 28 8 15 1000.2 1000.2 27.0
18/05:58pm 7.7 4.0 6.3 91 0.6 SW 15 28 8 15 1000.2 1000.2 26.8
18/05:30pm 8.2 5.6 7.6 96 0.3 W 11 19 6 10 999.8 999.8 24.0
18/05:21pm 8.5 5.9 7.9 96 0.3 NNW 11 13 6 7 999.6 999.6 22.0
18/05:12pm 8.4 5.0 7.6 95 0.4 NNW 15 20 8 11 999.6 999.6 21.4
18/05:00pm 8.5 4.4 7.7 95 0.4 NNW 19 24 10 13 999.3 999.3 20.8
18/04:54pm 8.7 4.4 7.9 95 0.4 NNW 20 28 11 15 999.5 999.5 20.4
18/04:41pm 8.3 3.1 7.4 94 0.4 NW 24 32 13 17 999.2 999.2 19.4
18/04:30pm 9.0 5.0 8.4 96 0.3 NW 19 30 10 16 999.2 999.2 18.8
18/04:23pm 9.0 5.0 8.4 96 0.3 NW 19 26 10 14 999.2 999.2 18.4
18/04:09pm 9.1 4.6 8.5 96 0.3 NW 22 32 12 17 999.3 999.3 16.2
18/04:07pm 9.0 4.8 8.4 96 0.3 NW 20 32 11 17 999.3 999.3 16.0
18/04:00pm 9.3 6.2 8.7 96 0.3 NNW 15 24 8 13 999.3 999.3 15.0
18/03:30pm 9.2 5.7 8.6 96 0.3 N 17 22 9 12 999.0 999.0 13.4
18/03:15pm 9.4 6.3 8.8 96 0.3 N 15 20 8 11 999.0 999.0 13.2
18/03:00pm 9.5 5.7 8.9 96 0.3 N 19 26 10 14 999.2 999.2 12.4
18/02:43pm 9.5 4.7 8.7 95 0.4 NNW 24 35 13 19 999.4 999.4 11.6
18/02:39pm 9.6 4.0 8.8 95 0.4 NNW 28 46 15 25 999.5 999.5 11.4
18/02:30pm 9.5 3.9 8.7 95 0.4 NNW 28 43 15 23 999.6 999.6 10.8
18/02:26pm 9.6 4.0 8.8 95 0.4 NNW 28 39 15 21 999.6 999.6 10.6
18/02:25pm 9.5 4.3 8.7 95 0.4 NNW 26 39 14 21 999.6 999.6 10.2
18/02:08pm 9.5 3.1 8.7 95 0.4 NNW 32 44 17 24 999.9 999.9 9.2
18/02:01pm 9.4 3.8 8.6 95 0.4 NNW 28 41 15 22 999.8 999.8 8.4
18/02:00pm 9.4 3.8 8.6 95 0.4 NNW 28 41 15 22 999.8 999.8 8.4
18/01:53pm 9.5 3.9 8.7 95 0.4 NNW 28 41 15 22 999.8 999.8 8.0
18/01:34pm 9.2 3.5 8.3 94 0.4 NNW 28 35 15 19 1000.2 1000.2 6.8
18/01:32pm 9.2 3.4 8.1 93 0.5 NNW 28 35 15 19 1000.2 1000.2 6.4
18/01:30pm 9.2 3.4 8.1 93 0.5 NNW 28 35 15 19 1000.3 1000.3 6.4
18/01:09pm 9.1 2.0 7.9 92 0.6 NNW 35 54 19 29 1001.1 1001.1 4.8
18/01:00pm 8.9 0.5 7.4 90 0.7 NNW 41 54 22 29 1001.1 1001.1 4.0
18/12:51pm 9.3 1.2 6.9 85 1.1 NW 39 57 21 31 1001.0 1001.0 2.4
18/12:48pm 9.9 3.0 7.3 84 1.2 NNW 33 57 18 31 1001.0 1001.0 1.2
18/12:32pm 11.3 4.6 8.2 81 1.5 N 33 52 18 28 1000.2 1000.2 0.6
18/12:30pm 11.4 4.3 8.1 80 1.6 N 35 52 19 28 1000.2 1000.2 0.6
18/12:09pm 12.4 5.7 7.3 71 2.5 N 32 50 17 27 1000.3 1000.3 0.4
18/12:00pm 12.3 6.4 7.4 72 2.4 N 28 43 15 23 1000.5 1000.5 0.4
18/11:32am 12.0 5.7 7.5 74 2.2 N 30 48 16 26 1000.8 1000.8 0.4
18/11:30am 11.8 6.0 7.9 77 1.9 N 28 41 15 22 1000.9 1000.9 0.4
18/11:00am 11.8 5.2 7.7 76 2.0 NNE 32 52 17 28 1001.0 1001.0 0.2
18/10:35am 12.0 5.3 7.3 73 2.3 N 32 50 17 27 1001.4 1001.4 0.2
18/10:30am 12.2 5.6 7.7 74 2.2 N 32 44 17 24 1001.5 1001.5 0.2
18/10:00am 11.4 5.9 7.5 77 1.9 N 26 37 14 20 1002.0 1002.0 0.2
18/09:30am 10.7 5.2 7.4 80 1.6 NNE 26 43 14 23 1002.4 1002.5 0.2
18/09:00am 10.4 5.3 7.8 84 1.3 N 24 39 13 21 1003.2 1003.3 0.6
18/08:30am 10.7 4.4 7.2 79 1.7 NNE 30 50 16 27 1003.9 1004.0 0.4
18/08:00am 10.5 2.4 6.8 78 1.8 N 39 57 21 31 1003.9 1004.0 0.2
18/07:51am 11.6 4.5 5.7 67 2.7 N 32 52 17 28 1004.1 1004.2 0.0
18/07:30am 11.2 5.1 4.7 64 2.9 NNE 26 39 14 21 1003.9 1004.0 0.0
18/07:00am 11.4 4.8 4.4 62 3.2 NNE 28 44 15 24 1003.9 1004.0 0.0
18/06:30am 11.5 4.0 4.7 63 3.1 NNE 33 57 18 31 1004.5 1004.6 0.0
18/06:01am 11.7 5.1 4.2 60 3.4 N 28 46 15 25 1005.0 1005.1 0.0
18/06:00am 11.8 5.6 4.1 59 3.5 N 26 46 14 25 1005.1 1005.2 0.0
18/05:30am 11.9 4.6 4.4 60 3.4 NNE 32 46 17 25 1004.8 1004.9 0.0
18/05:00am 11.7 5.2 4.9 63 3.1 NNE 28 46 15 25 1005.2 1005.3 0.0
18/04:41am 11.8 5.0 5.0 63 3.1 NNE 30 50 16 27 1005.6 1005.7 0.0
18/04:30am 11.8 4.6 4.8 62 3.2 NNE 32 44 17 24 1006.0 1006.1 0.0
18/04:00am 11.9 4.0 4.6 61 3.3 NNE 35 54 19 29 1006.4 1006.5 0.0
18/03:30am 11.7 3.4 4.4 61 3.3 NNE 37 65 20 35 1006.5 1006.6 0.0
18/03:00am 11.3 2.6 4.3 62 3.2 NNE 39 57 21 31 1006.7 1006.8 0.0
18/02:40am 10.9 3.7 4.8 66 2.8 N 32 50 17 27 1007.1 1007.2 0.0
18/02:30am 10.7 3.5 4.8 67 2.7 N 32 46 17 25 1007.5 1007.6 0.0
18/02:00am 11.0 3.7 4.7 65 2.9 N 32 46 17 25 1008.2 1008.3 0.0
18/01:30am 11.2 2.7 5.1 66 2.8 NNE 39 67 21 36 1008.4 1008.5 0.0
18/01:00am 11.1 3.8 4.3 63 3.1 NNE 32 54 17 29 1009.0 1009.1 0.0
18/12:30am 10.7 3.2 4.2 64 2.9 NNE 33 63 18 34 1009.7 1009.8 0.0
18/12:04am 10.8 3.3 4.3 64 2.9 NNE 33 52 18 28 1010.5 1010.6 0.0
18/12:00am 10.7 3.4 4.4 65 2.8 NNE 32 48 17 26 1010.6 1010.7 0.0
 
Date/Time
EST
Temp
°C
App
Temp
°C
Dew
Point
°C
Rel
Hum
%
Delta-T
°C
Wind Press
QNH
hPa
Press
MSL
hPa
Rain since
9am
mm
Dir  Spd
km/h
Gust
km/h
Spd
kts
Gust
kts
17/11:30pm 10.4 3.8 4.1 65 2.8 NNE 28 46 15 25 1011.2 1011.3 0.0
17/11:15pm 10.3 3.7 4.2 66 2.7 NNE 28 50 15 27 1011.3 1011.4 0.0
17/11:00pm 9.7 5.1 3.9 67 2.5 NNE 17 28 9 15 1011.5 1011.6 0.0
17/10:30pm 9.9 4.4 3.9 66 2.6 NNE 22 39 12 21 1012.0 1012.1 0.0
17/10:00pm 8.9 4.3 3.5 69 2.3 NNE 17 28 9 15 1013.0 1013.1 0.0
17/09:30pm 9.4 4.2 3.8 68 2.4 NNE 20 32 11 17 1013.5 1013.6 0.0
17/09:00pm 9.2 4.3 4.0 70 2.3 N 19 28 10 15 1013.8 1013.9 0.0
17/08:30pm 9.2 3.4 4.4 72 2.1 N 24 39 13 21 1014.5 1014.6 0.0
17/08:00pm 7.5 5.7 3.7 77 1.6 NNE 2 9 1 5 1014.9 1015.0 0.0
17/07:30pm 7.9 5.1 3.2 72 2.0 N 7 11 4 6 1015.4 1015.5 0.0
17/07:00pm 7.8 3.6 3.7 75 1.8 N 15 20 8 11 1015.9 1015.9 0.0

Other formats

Comma delimited format used in spreadsheet applications
http://www.bom.gov.au/fwo/IDT60801/IDT60801.94956.axf

JavaScript Object Notation format (JSON) in row-major order
http://www.bom.gov.au/fwo/IDT60801/IDT60801.94956.json

Data quality

Most of these data are generated automatically and are frequently updated. Quality checks on data are not normally performed. It is possible for incorrect values to appear. Refer to information at About Latest Weather Observations and please check the disclaimer before using these data.